createdAt,value
2019-01-05T00:00:09.460Z,18.77
2019-01-05T00:03:04.485Z,19.80
2019-01-05T00:05:52.183Z,18.40
2019-01-05T00:08:53.333Z,18.25
2019-01-05T00:11:43.101Z,18.75
2019-01-05T00:18:22.937Z,20.25
2019-01-05T00:21:22.498Z,21.82
2019-01-05T00:30:28.127Z,16.67
2019-01-05T00:33:16.176Z,18.50
2019-01-05T00:36:22.536Z,16.62
2019-01-05T00:39:13.174Z,19.95
2019-01-05T00:42:00.823Z,17.95
2019-01-05T00:45:01.806Z,25.37
2019-01-05T00:47:59.750Z,24.12
2019-01-05T00:51:03.963Z,17.42
2019-01-05T00:53:55.008Z,21.37
2019-01-05T00:56:54.406Z,19.37
2019-01-05T00:59:42.866Z,16.43
2019-01-05T01:06:22.525Z,15.48
2019-01-05T01:09:14.704Z,22.47
2019-01-05T01:12:02.235Z,17.32
2019-01-05T01:14:53.710Z,16.85
2019-01-05T01:21:32.352Z,17.85
2019-01-05T01:31:38.522Z,17.00
2019-01-05T01:45:04.923Z,19.70
2019-01-05T01:47:53.610Z,16.20
2019-01-05T01:54:35.570Z,18.15
2019-01-05T02:04:36.799Z,18.62
2019-01-05T02:07:25.201Z,18.50
2019-01-05T02:29:49.093Z,17.65
2019-01-05T02:33:47.549Z,17.65
2019-01-05T02:37:14.270Z,20.40
2019-01-05T02:40:59.029Z,15.20
2019-01-05T02:44:54.936Z,21.40
2019-01-05T02:48:33.594Z,16.37
2019-01-05T02:52:25.118Z,16.65
2019-01-05T02:56:08.981Z,15.63
2019-01-05T02:59:56.837Z,15.93
2019-01-05T03:03:48.205Z,19.00
2019-01-05T03:07:26.998Z,13.30
2019-01-05T03:11:08.003Z,18.77
2019-01-05T03:15:08.838Z,20.15
2019-01-05T03:19:15.769Z,18.17
2019-01-05T03:22:52.798Z,16.50
2019-01-05T03:26:50.614Z,20.92
2019-01-05T03:30:23.669Z,15.45
2019-01-05T03:34:19.855Z,24.45
2019-01-05T03:55:49.784Z,18.87
2019-01-05T03:59:44.088Z,18.60
2019-01-05T04:03:36.518Z,16.10
2019-01-05T04:07:19.068Z,22.30
2019-01-05T04:10:57.420Z,20.08
2019-01-05T04:14:41.664Z,20.95
2019-01-05T04:25:34.808Z,23.27
2019-01-05T04:29:37.654Z,21.00
2019-01-05T04:33:03.822Z,18.82
2019-01-05T04:47:37.063Z,27.45
2019-01-05T05:01:20.296Z,24.27
2019-01-05T05:04:56.908Z,27.85
2019-01-05T05:08:42.316Z,30.82
2019-01-05T05:12:47.054Z,34.43
2019-01-05T05:16:14.694Z,35.70
2019-01-05T05:20:01.411Z,28.42
2019-01-05T05:23:45.557Z,31.25
2019-01-05T05:27:24.694Z,29.92
2019-01-05T05:31:22.810Z,31.33
2019-01-05T05:35:22.472Z,29.15
2019-01-05T05:39:22.841Z,31.00
2019-01-05T05:43:12.716Z,29.63
2019-01-05T05:46:33.338Z,27.37
2019-01-05T05:50:19.502Z,30.65
2019-01-05T05:53:35.188Z,27.48
2019-01-05T05:57:45.351Z,34.23
2019-01-05T06:02:25.647Z,38.67
2019-01-05T06:06:20.063Z,32.58
2019-01-05T06:09:45.601Z,33.65
2019-01-05T06:13:50.146Z,27.05
2019-01-05T06:17:27.761Z,34.45
2019-01-05T06:21:24.202Z,27.25
2019-01-05T06:45:56.760Z,23.25
2019-01-05T06:49:45.382Z,33.28
2019-01-05T06:53:27.305Z,33.85
2019-01-05T06:57:39.113Z,25.43
2019-01-05T07:01:24.143Z,22.95
2019-01-05T07:05:10.536Z,22.52
2019-01-05T07:24:13.656Z,19.40
2019-01-05T07:42:29.573Z,23.70
2019-01-05T07:46:22.926Z,19.10
2019-01-05T07:50:39.534Z,25.65
2019-01-05T07:54:52.026Z,25.50
2019-01-05T07:58:38.400Z,18.60
2019-01-05T08:02:29.170Z,24.82
2019-01-05T08:06:21.857Z,21.42
2019-01-05T08:10:07.437Z,20.02
2019-01-05T08:14:25.958Z,17.40
2019-01-05T08:18:43.590Z,27.30
2019-01-05T08:22:45.749Z,17.87
2019-01-05T08:27:00.585Z,16.82
2019-01-05T08:30:35.634Z,16.30
2019-01-05T08:34:20.371Z,16.55
2019-01-05T08:38:18.839Z,13.93
2019-01-05T08:42:02.438Z,12.40
2019-01-05T08:46:02.096Z,21.07
2019-01-05T08:50:39.521Z,18.07
2019-01-05T08:54:26.231Z,16.70
2019-01-05T08:58:17.486Z,15.45
2019-01-05T09:02:01.726Z,15.38
2019-01-05T09:05:31.260Z,14.90
2019-01-05T09:09:18.188Z,14.80
2019-01-05T09:13:22.742Z,19.52
2019-01-05T09:24:55.510Z,16.45
2019-01-05T09:29:10.674Z,17.30
2019-01-05T09:33:09.419Z,13.58
2019-01-05T09:37:01.994Z,14.35
2019-01-05T09:40:39.620Z,18.37
2019-01-05T09:51:19.125Z,12.45
2019-01-05T10:14:58.775Z,56.92
2019-01-05T10:18:43.777Z,13.10
2019-01-05T10:22:10.710Z,14.43
2019-01-05T10:26:02.270Z,10.30
2019-01-05T10:29:51.274Z,14.20
2019-01-05T10:33:59.229Z,10.85
2019-01-05T10:38:16.464Z,7.53
2019-01-05T10:42:12.962Z,9.48
2019-01-05T10:46:09.885Z,6.60
2019-01-05T10:49:47.755Z,6.50
2019-01-05T10:53:25.492Z,9.38
2019-01-05T10:57:35.946Z,6.90
2019-01-05T11:01:51.416Z,9.80
2019-01-05T11:05:41.244Z,11.28
2019-01-05T11:09:09.385Z,6.83
2019-01-05T11:13:19.070Z,12.45
2019-01-05T11:16:44.405Z,13.28
2019-01-05T11:20:35.906Z,15.75
2019-01-05T11:24:27.772Z,14.55
2019-01-05T11:28:14.412Z,17.57
2019-01-05T11:31:55.450Z,11.55
2019-01-05T11:35:35.073Z,14.60
2019-01-05T11:39:36.873Z,10.27
2019-01-05T11:43:11.814Z,16.15
2019-01-05T11:47:15.016Z,12.03
2019-01-05T11:50:57.077Z,7.15
2019-01-05T11:54:45.078Z,9.68
2019-01-05T11:58:31.702Z,8.75
2019-01-05T12:09:07.857Z,9.88
2019-01-05T12:49:14.527Z,6.85
2019-01-05T12:53:11.363Z,10.70
2019-01-05T12:57:12.718Z,13.43
2019-01-05T13:01:22.827Z,12.30
2019-01-05T13:05:10.802Z,7.83
2019-01-05T13:08:53.469Z,11.47
2019-01-05T13:12:42.815Z,10.45
2019-01-05T13:16:13.015Z,12.13
2019-01-05T13:19:40.263Z,11.12
2019-01-05T13:23:28.843Z,14.90
2019-01-05T13:27:06.690Z,11.33
2019-01-05T13:31:02.593Z,8.45
2019-01-05T13:35:05.506Z,8.35
2019-01-05T13:39:02.767Z,6.55
2019-01-05T13:42:50.712Z,8.88
2019-01-05T13:46:29.869Z,7.00
2019-01-05T13:50:12.993Z,7.63
2019-01-05T13:53:53.956Z,13.53
2019-01-05T13:57:01.653Z,29.42
2019-01-05T14:00:02.923Z,15.83
2019-01-05T14:02:50.220Z,11.97
2019-01-05T14:05:54.391Z,32.37
2019-01-05T14:08:37.101Z,17.77
2019-01-05T14:15:09.001Z,24.93
2019-01-05T14:18:04.322Z,13.07
2019-01-05T14:21:04.095Z,13.80
2019-01-05T14:23:51.868Z,17.40
2019-01-05T14:26:50.379Z,14.03
2019-01-05T14:29:31.559Z,32.13
2019-01-05T14:39:01.785Z,17.52
2019-01-05T14:41:53.745Z,16.80
2019-01-05T15:11:34.795Z,16.37
2019-01-05T15:14:17.651Z,22.57
2019-01-05T15:17:10.467Z,14.53
2019-01-05T15:20:02.454Z,14.93
2019-01-05T15:22:51.344Z,9.63
2019-01-05T15:25:40.621Z,10.17
2019-01-05T15:28:41.908Z,11.22
2019-01-05T15:31:39.553Z,10.67
2019-01-05T15:34:43.327Z,14.33
2019-01-05T15:37:30.869Z,9.40
2019-01-05T15:40:19.717Z,10.50
2019-01-05T15:43:17.913Z,10.47
2019-01-05T15:46:06.991Z,8.67
2019-01-05T15:49:07.761Z,9.40
2019-01-05T15:51:55.776Z,11.73
2019-01-05T15:54:59.880Z,11.60
2019-01-05T15:57:47.197Z,12.83
2019-01-05T16:00:34.395Z,8.10
2019-01-05T16:03:18.048Z,10.73
2019-01-05T16:06:05.580Z,12.43
2019-01-05T16:09:06.539Z,8.20
2019-01-05T16:11:59.620Z,10.47
2019-01-05T16:14:58.397Z,9.33
2019-01-05T16:18:01.186Z,10.63
2019-01-05T16:20:49.085Z,9.60
2019-01-05T16:23:38.386Z,12.00
2019-01-05T16:26:26.519Z,17.23
2019-01-05T16:29:14.732Z,13.48
2019-01-05T16:32:02.854Z,14.33
2019-01-05T16:34:51.926Z,8.53
2019-01-05T16:37:30.002Z,13.20
2019-01-05T16:40:21.828Z,12.43
2019-01-05T16:43:06.521Z,8.20
2019-01-05T16:45:46.581Z,10.13
2019-01-05T16:48:52.889Z,12.53
2019-01-05T16:51:47.525Z,10.17
2019-01-05T16:54:36.709Z,10.03
2019-01-05T16:57:24.458Z,12.17
2019-01-05T17:00:19.438Z,12.03
2019-01-05T17:03:03.620Z,11.70
2019-01-05T17:05:51.223Z,11.70
2019-01-05T17:08:54.506Z,14.83
2019-01-05T17:11:42.109Z,8.63
2019-01-05T17:14:37.129Z,10.27
2019-01-05T17:17:17.501Z,12.30
2019-01-05T17:20:11.959Z,10.87
2019-01-05T17:23:07.139Z,12.63
2019-01-05T17:25:55.814Z,14.10
2019-01-05T17:28:50.873Z,11.27
2019-01-05T17:31:57.684Z,9.37
2019-01-05T17:34:49.773Z,7.47
2019-01-05T17:37:41.580Z,11.10
2019-01-05T17:40:33.669Z,11.77
2019-01-05T17:43:18.614Z,8.13
2019-01-05T17:46:20.484Z,9.70
2019-01-05T17:49:19.107Z,10.40
2019-01-05T17:52:06.691Z,10.00
2019-01-05T17:55:05.060Z,10.17
2019-01-05T17:58:06.143Z,10.73
2019-01-05T18:00:59.090Z,7.60
2019-01-05T18:03:50.557Z,8.00
2019-01-05T18:06:51.537Z,8.47
2019-01-05T18:09:46.302Z,9.07
2019-01-05T18:12:33.803Z,7.90
2019-01-05T18:15:21.406Z,7.30
2019-01-05T18:18:08.998Z,7.73
2019-01-05T18:20:58.000Z,10.20
2019-01-05T18:23:46.289Z,7.77
2019-01-05T18:26:35.173Z,7.53
2019-01-05T18:29:42.278Z,9.10
2019-01-05T18:32:35.899Z,5.97
2019-01-05T18:35:20.231Z,11.63
2019-01-05T18:38:04.659Z,8.57
2019-01-05T18:40:52.443Z,9.20
2019-01-05T18:43:39.556Z,13.17
2019-01-05T18:46:28.396Z,8.33
2019-01-05T18:49:16.465Z,7.03
2019-01-05T18:52:03.686Z,8.70
2019-01-05T18:54:50.739Z,7.50
2019-01-05T18:57:38.976Z,8.10
2019-01-05T19:00:35.147Z,8.27
2019-01-05T19:03:34.200Z,7.20
2019-01-05T19:06:35.352Z,8.47
2019-01-05T19:09:25.877Z,8.70
2019-01-05T19:12:16.708Z,7.67
2019-01-05T19:15:09.209Z,10.40
2019-01-05T19:17:57.151Z,11.77
2019-01-05T19:21:04.304Z,9.70
2019-01-05T19:23:56.232Z,6.80
2019-01-05T19:26:57.018Z,7.93
2019-01-05T19:29:52.840Z,10.00
2019-01-05T19:32:35.659Z,8.90
2019-01-05T19:35:19.400Z,9.83
2019-01-05T19:38:17.167Z,7.70
2019-01-05T19:41:15.467Z,8.80
2019-01-05T19:44:10.591Z,8.57
2019-01-05T19:47:03.980Z,7.37
2019-01-05T19:49:46.304Z,7.90
2019-01-05T19:52:33.994Z,5.17
2019-01-05T19:55:14.411Z,8.67
2019-01-05T19:58:01.863Z,8.30
2019-01-05T20:00:43.990Z,6.10
2019-01-05T20:03:42.180Z,10.93
2019-01-05T20:06:43.438Z,6.67
2019-01-05T20:09:30.882Z,8.60
2019-01-05T20:12:18.458Z,9.27
2019-01-05T20:15:16.481Z,10.60
2019-01-05T20:21:56.787Z,6.60
2019-01-05T20:24:46.128Z,9.73
2019-01-05T20:27:33.872Z,6.03
2019-01-05T20:30:25.901Z,7.78
2019-01-05T20:33:29.665Z,5.10
2019-01-05T20:42:38.251Z,7.80
2019-01-05T20:45:33.178Z,5.30
2019-01-05T20:48:13.738Z,8.10
2019-01-05T20:51:15.414Z,9.57
2019-01-05T20:54:10.512Z,6.07
2019-01-05T20:57:02.179Z,9.83
2019-01-05T20:59:55.388Z,6.07
2019-01-05T21:02:42.782Z,8.50
2019-01-05T21:05:32.515Z,6.27
2019-01-05T21:08:36.588Z,4.37
2019-01-05T21:11:22.645Z,7.43
2019-01-05T21:14:23.623Z,5.77
2019-01-05T21:17:09.685Z,6.03
2019-01-05T21:19:54.801Z,7.80
2019-01-05T21:22:44.042Z,7.30
2019-01-05T21:25:40.620Z,6.13
2019-01-05T21:28:25.579Z,6.40
2019-01-05T21:31:16.532Z,5.83
2019-01-05T21:34:08.216Z,4.80
2019-01-05T21:36:56.082Z,6.83
2019-01-05T21:39:39.460Z,8.17
2019-01-05T21:42:29.475Z,7.40
2019-01-05T21:45:16.986Z,7.03
2019-01-05T21:48:04.611Z,5.73
2019-01-05T21:51:11.718Z,3.47
2019-01-05T21:53:50.377Z,6.23
2019-01-05T21:56:38.171Z,5.77
2019-01-05T21:59:23.345Z,5.87
2019-01-05T22:02:08.113Z,6.47
2019-01-05T22:04:55.942Z,5.70
2019-01-05T22:07:43.441Z,12.07
2019-01-05T22:10:28.683Z,7.50
2019-01-05T22:13:29.478Z,7.23
2019-01-05T22:16:17.146Z,7.17
2019-01-05T22:19:09.110Z,6.53
2019-01-05T22:22:13.151Z,7.20
2019-01-05T22:25:02.382Z,5.33
2019-01-05T22:28:00.208Z,7.50
2019-01-05T22:47:43.152Z,8.20
2019-01-05T22:50:45.233Z,4.37
2019-01-05T22:53:33.019Z,7.23
2019-01-05T22:56:20.593Z,4.90
2019-01-05T22:59:10.732Z,7.67
2019-01-05T23:02:12.758Z,7.60
2019-01-05T23:05:08.032Z,7.17
2019-01-05T23:07:57.489Z,8.67
2019-01-05T23:10:53.253Z,7.17
2019-01-05T23:13:41.205Z,8.77
2019-01-05T23:16:25.924Z,6.10
2019-01-05T23:19:13.228Z,9.30
2019-01-05T23:22:01.444Z,6.57
2019-01-05T23:25:00.691Z,6.50
2019-01-05T23:27:44.238Z,7.43
2019-01-05T23:34:25.398Z,6.60
2019-01-05T23:37:13.750Z,6.50
2019-01-05T23:40:02.696Z,7.70
2019-01-05T23:42:53.484Z,5.33
2019-01-05T23:49:29.634Z,6.10
2019-01-05T23:52:24.689Z,6.43
2019-01-05T23:55:29.013Z,8.03
2019-01-05T23:58:46.271Z,8.43
